Weather at Palm Beach County Glades Airport

Public forecast

Using degrees Fahrenheit for public forecast. Weather courtesy of forecast.io.

Closest aviation weather report (METAR) to Palm Beach County Glades Airport

Closest report is Airglades Airport, 19.4 nm (35.9 km) W.

(retrieved 0 seconds ago)

Closest aviation forecast (TAF) to Palm Beach County Glades Airport

Closest forecast is Palm Beach International Airport, 32.6 nm (60.4 km) E.

2024/07/20 15:10 Ammendment (retrieved 6 minutes ago)

TAF AMD KPBI 201508Z 2015/2112 13009KT P6SM VCSH SCT025 BKN250 TEMPO 2015/2016 6SM -TSRA BKN025CB FM201700 12011KT P6SM VCTS SCT030CB BKN050 FM210000 12008KT P6SM SCT030 SCT250